sensor_id;sensor_type;location;lat;lon;timestamp;P1;durP1;ratioP1;P2;durP2;ratioP2
5507;SDS011;2776;51.046;6.772;2023-03-04T00:01:06;31.97;;;16.50;;
5507;SDS011;2776;51.046;6.772;2023-03-04T00:03:33;26.40;;;15.70;;
5507;SDS011;2776;51.046;6.772;2023-03-04T00:06:01;31.57;;;18.03;;
5507;SDS011;2776;51.046;6.772;2023-03-04T00:08:28;31.43;;;18.10;;
5507;SDS011;2776;51.046;6.772;2023-03-04T00:10:54;35.93;;;16.77;;
5507;SDS011;2776;51.046;6.772;2023-03-04T00:13:21;26.90;;;15.47;;
5507;SDS011;2776;51.046;6.772;2023-03-04T00:15:49;29.10;;;15.57;;
5507;SDS011;2776;51.046;6.772;2023-03-04T00:18:17;31.17;;;16.30;;
5507;SDS011;2776;51.046;6.772;2023-03-04T00:20:45;28.83;;;15.43;;
5507;SDS011;2776;51.046;6.772;2023-03-04T00:23:13;29.67;;;15.83;;
5507;SDS011;2776;51.046;6.772;2023-03-04T00:25:40;27.63;;;15.10;;
5507;SDS011;2776;51.046;6.772;2023-03-04T00:28:07;27.53;;;13.73;;
5507;SDS011;2776;51.046;6.772;2023-03-04T00:30:34;27.60;;;14.03;;
5507;SDS011;2776;51.046;6.772;2023-03-04T00:33:00;25.57;;;13.40;;
5507;SDS011;2776;51.046;6.772;2023-03-04T00:35:28;21.33;;;12.23;;
5507;SDS011;2776;51.046;6.772;2023-03-04T00:37:55;21.57;;;13.17;;
5507;SDS011;2776;51.046;6.772;2023-03-04T00:40:22;20.80;;;11.03;;
5507;SDS011;2776;51.046;6.772;2023-03-04T00:42:49;21.13;;;11.40;;
5507;SDS011;2776;51.046;6.772;2023-03-04T00:45:15;19.43;;;12.00;;
5507;SDS011;2776;51.046;6.772;2023-03-04T00:47:42;19.60;;;11.07;;
5507;SDS011;2776;51.046;6.772;2023-03-04T00:50:09;18.03;;;10.77;;
5507;SDS011;2776;51.046;6.772;2023-03-04T00:52:38;23.13;;;11.37;;
5507;SDS011;2776;51.046;6.772;2023-03-04T00:55:05;20.47;;;11.20;;
5507;SDS011;2776;51.046;6.772;2023-03-04T00:57:33;22.97;;;11.20;;
5507;SDS011;2776;51.046;6.772;2023-03-04T01:00:00;21.33;;;10.80;;
5507;SDS011;2776;51.046;6.772;2023-03-04T01:02:26;19.30;;;10.60;;
5507;SDS011;2776;51.046;6.772;2023-03-04T01:04:53;22.07;;;11.77;;
5507;SDS011;2776;51.046;6.772;2023-03-04T01:07:20;19.20;;;9.50;;
5507;SDS011;2776;51.046;6.772;2023-03-04T01:09:48;17.63;;;9.90;;
5507;SDS011;2776;51.046;6.772;2023-03-04T01:12:15;20.87;;;10.20;;
5507;SDS011;2776;51.046;6.772;2023-03-04T01:14:41;20.03;;;9.47;;
5507;SDS011;2776;51.046;6.772;2023-03-04T01:17:08;18.17;;;9.20;;
5507;SDS011;2776;51.046;6.772;2023-03-04T01:19:36;13.43;;;8.67;;
5507;SDS011;2776;51.046;6.772;2023-03-04T01:22:02;18.13;;;9.00;;
5507;SDS011;2776;51.046;6.772;2023-03-04T01:24:29;17.73;;;9.57;;
5507;SDS011;2776;51.046;6.772;2023-03-04T01:26:57;19.33;;;9.57;;
5507;SDS011;2776;51.046;6.772;2023-03-04T01:29:24;15.23;;;9.33;;
5507;SDS011;2776;51.046;6.772;2023-03-04T01:31:51;18.70;;;9.10;;
5507;SDS011;2776;51.046;6.772;2023-03-04T01:34:17;19.03;;;9.27;;
5507;SDS011;2776;51.046;6.772;2023-03-04T01:36:44;16.07;;;8.53;;
5507;SDS011;2776;51.046;6.772;2023-03-04T01:39:11;15.27;;;8.13;;
5507;SDS011;2776;51.046;6.772;2023-03-04T01:41:38;18.43;;;9.00;;
5507;SDS011;2776;51.046;6.772;2023-03-04T01:44:08;17.83;;;7.53;;
5507;SDS011;2776;51.046;6.772;2023-03-04T01:46:36;18.00;;;8.27;;
5507;SDS011;2776;51.046;6.772;2023-03-04T01:49:04;17.50;;;8.23;;
5507;SDS011;2776;51.046;6.772;2023-03-04T01:51:31;12.40;;;7.27;;
5507;SDS011;2776;51.046;6.772;2023-03-04T01:53:58;16.97;;;7.67;;
5507;SDS011;2776;51.046;6.772;2023-03-04T01:56:27;13.63;;;6.77;;
5507;SDS011;2776;51.046;6.772;2023-03-04T01:59:10;11.67;;;7.20;;
5507;SDS011;2776;51.046;6.772;2023-03-04T02:01:39;16.13;;;6.50;;
5507;SDS011;2776;51.046;6.772;2023-03-04T02:04:08;12.83;;;7.03;;
5507;SDS011;2776;51.046;6.772;2023-03-04T02:06:35;16.40;;;7.00;;
5507;SDS011;2776;51.046;6.772;2023-03-04T02:09:03;16.67;;;6.97;;
5507;SDS011;2776;51.046;6.772;2023-03-04T02:11:31;12.67;;;7.17;;
5507;SDS011;2776;51.046;6.772;2023-03-04T02:13:58;17.33;;;7.43;;
5507;SDS011;2776;51.046;6.772;2023-03-04T02:16:26;12.57;;;6.47;;
5507;SDS011;2776;51.046;6.772;2023-03-04T02:18:53;13.30;;;6.43;;
5507;SDS011;2776;51.046;6.772;2023-03-04T02:21:21;12.23;;;6.53;;
5507;SDS011;2776;51.046;6.772;2023-03-04T02:23:53;13.73;;;6.43;;
5507;SDS011;2776;51.046;6.772;2023-03-04T02:26:26;14.27;;;5.97;;
5507;SDS011;2776;51.046;6.772;2023-03-04T02:28:54;15.27;;;5.77;;
5507;SDS011;2776;51.046;6.772;2023-03-04T02:31:24;14.17;;;6.43;;
5507;SDS011;2776;51.046;6.772;2023-03-04T02:33:53;13.07;;;5.47;;
5507;SDS011;2776;51.046;6.772;2023-03-04T02:36:22;15.57;;;6.20;;
5507;SDS011;2776;51.046;6.772;2023-03-04T02:38:49;13.73;;;6.03;;
5507;SDS011;2776;51.046;6.772;2023-03-04T02:41:18;12.07;;;6.07;;
5507;SDS011;2776;51.046;6.772;2023-03-04T02:43:49;12.50;;;6.50;;
5507;SDS011;2776;51.046;6.772;2023-03-04T02:46:18;11.47;;;5.53;;
5507;SDS011;2776;51.046;6.772;2023-03-04T02:48:45;12.17;;;5.57;;
5507;SDS011;2776;51.046;6.772;2023-03-04T02:51:11;21.13;;;6.27;;
5507;SDS011;2776;51.046;6.772;2023-03-04T02:53:38;18.37;;;7.53;;
5507;SDS011;2776;51.046;6.772;2023-03-04T02:56:05;16.20;;;5.80;;
5507;SDS011;2776;51.046;6.772;2023-03-04T02:58:32;13.10;;;5.73;;
5507;SDS011;2776;51.046;6.772;2023-03-04T03:01:01;14.63;;;5.67;;
5507;SDS011;2776;51.046;6.772;2023-03-04T03:03:27;17.50;;;6.40;;
5507;SDS011;2776;51.046;6.772;2023-03-04T03:05:54;14.30;;;5.40;;
5507;SDS011;2776;51.046;6.772;2023-03-04T03:08:21;17.73;;;5.97;;
5507;SDS011;2776;51.046;6.772;2023-03-04T03:10:48;16.50;;;5.13;;
5507;SDS011;2776;51.046;6.772;2023-03-04T03:13:15;11.80;;;5.23;;
5507;SDS011;2776;51.046;6.772;2023-03-04T03:15:41;13.87;;;4.90;;
5507;SDS011;2776;51.046;6.772;2023-03-04T03:18:10;9.40;;;5.03;;
5507;SDS011;2776;51.046;6.772;2023-03-04T03:20:37;14.60;;;4.67;;
5507;SDS011;2776;51.046;6.772;2023-03-04T03:23:03;11.43;;;4.90;;
5507;SDS011;2776;51.046;6.772;2023-03-04T03:25:30;11.83;;;4.57;;
5507;SDS011;2776;51.046;6.772;2023-03-04T03:27:57;13.17;;;4.83;;
5507;SDS011;2776;51.046;6.772;2023-03-04T03:30:24;11.53;;;4.67;;
5507;SDS011;2776;51.046;6.772;2023-03-04T03:32:51;13.80;;;4.97;;
5507;SDS011;2776;51.046;6.772;2023-03-04T03:35:19;13.77;;;4.73;;
5507;SDS011;2776;51.046;6.772;2023-03-04T03:37:46;13.60;;;4.37;;
5507;SDS011;2776;51.046;6.772;2023-03-04T03:40:14;11.67;;;4.83;;
5507;SDS011;2776;51.046;6.772;2023-03-04T03:42:41;14.43;;;4.43;;
5507;SDS011;2776;51.046;6.772;2023-03-04T03:45:08;12.20;;;4.70;;
5507;SDS011;2776;51.046;6.772;2023-03-04T03:47:36;12.03;;;3.80;;
5507;SDS011;2776;51.046;6.772;2023-03-04T03:50:03;9.20;;;3.93;;
5507;SDS011;2776;51.046;6.772;2023-03-04T03:52:32;11.00;;;4.07;;
5507;SDS011;2776;51.046;6.772;2023-03-04T03:54:58;11.63;;;4.03;;
5507;SDS011;2776;51.046;6.772;2023-03-04T03:57:26;12.07;;;4.03;;
5507;SDS011;2776;51.046;6.772;2023-03-04T03:59:53;11.23;;;3.00;;
5507;SDS011;2776;51.046;6.772;2023-03-04T04:02:20;13.33;;;3.43;;
5507;SDS011;2776;51.046;6.772;2023-03-04T04:04:47;11.57;;;3.70;;
5507;SDS011;2776;51.046;6.772;2023-03-04T04:07:14;11.23;;;3.80;;
5507;SDS011;2776;51.046;6.772;2023-03-04T04:09:42;12.10;;;4.03;;
5507;SDS011;2776;51.046;6.772;2023-03-04T04:12:10;13.70;;;3.60;;
5507;SDS011;2776;51.046;6.772;2023-03-04T04:14:38;7.87;;;3.53;;
5507;SDS011;2776;51.046;6.772;2023-03-04T04:17:05;15.03;;;3.87;;
5507;SDS011;2776;51.046;6.772;2023-03-04T04:19:32;10.23;;;3.63;;
5507;SDS011;2776;51.046;6.772;2023-03-04T04:21:59;11.53;;;3.67;;
5507;SDS011;2776;51.046;6.772;2023-03-04T04:24:26;12.90;;;3.17;;
5507;SDS011;2776;51.046;6.772;2023-03-04T04:26:54;11.13;;;3.13;;
5507;SDS011;2776;51.046;6.772;2023-03-04T04:29:22;9.10;;;3.07;;
5507;SDS011;2776;51.046;6.772;2023-03-04T04:31:49;9.63;;;2.80;;
5507;SDS011;2776;51.046;6.772;2023-03-04T04:34:16;7.53;;;3.00;;
5507;SDS011;2776;51.046;6.772;2023-03-04T04:36:42;8.90;;;3.20;;
5507;SDS011;2776;51.046;6.772;2023-03-04T04:39:09;11.57;;;3.20;;
5507;SDS011;2776;51.046;6.772;2023-03-04T04:41:37;11.63;;;2.87;;
5507;SDS011;2776;51.046;6.772;2023-03-04T04:44:08;13.00;;;4.00;;
5507;SDS011;2776;51.046;6.772;2023-03-04T04:46:36;8.47;;;3.00;;
5507;SDS011;2776;51.046;6.772;2023-03-04T04:49:03;14.97;;;3.60;;
5507;SDS011;2776;51.046;6.772;2023-03-04T04:51:30;12.93;;;3.10;;
5507;SDS011;2776;51.046;6.772;2023-03-04T04:53:57;9.30;;;2.73;;
5507;SDS011;2776;51.046;6.772;2023-03-04T04:56:25;10.90;;;3.77;;
5507;SDS011;2776;51.046;6.772;2023-03-04T04:58:52;9.80;;;3.50;;
5507;SDS011;2776;51.046;6.772;2023-03-04T05:01:22;9.43;;;3.23;;
5507;SDS011;2776;51.046;6.772;2023-03-04T05:03:50;16.90;;;3.90;;
5507;SDS011;2776;51.046;6.772;2023-03-04T05:06:19;11.97;;;3.27;;
5507;SDS011;2776;51.046;6.772;2023-03-04T05:08:47;8.67;;;2.93;;
5507;SDS011;2776;51.046;6.772;2023-03-04T05:11:14;12.10;;;2.90;;
5507;SDS011;2776;51.046;6.772;2023-03-04T05:13:43;8.33;;;3.07;;
5507;SDS011;2776;51.046;6.772;2023-03-04T05:16:10;9.73;;;2.80;;
5507;SDS011;2776;51.046;6.772;2023-03-04T05:18:38;8.13;;;2.90;;
5507;SDS011;2776;51.046;6.772;2023-03-04T05:21:05;16.27;;;3.50;;
5507;SDS011;2776;51.046;6.772;2023-03-04T05:23:33;10.27;;;3.17;;
5507;SDS011;2776;51.046;6.772;2023-03-04T05:26:01;8.73;;;3.43;;
5507;SDS011;2776;51.046;6.772;2023-03-04T05:28:28;11.87;;;3.00;;
5507;SDS011;2776;51.046;6.772;2023-03-04T05:30:55;10.03;;;2.93;;
5507;SDS011;2776;51.046;6.772;2023-03-04T05:33:22;14.10;;;3.43;;
5507;SDS011;2776;51.046;6.772;2023-03-04T05:35:50;14.53;;;3.63;;
5507;SDS011;2776;51.046;6.772;2023-03-04T05:38:19;6.77;;;2.80;;
5507;SDS011;2776;51.046;6.772;2023-03-04T05:40:46;10.07;;;3.30;;
5507;SDS011;2776;51.046;6.772;2023-03-04T05:43:13;11.57;;;3.13;;
5507;SDS011;2776;51.046;6.772;2023-03-04T05:45:40;10.40;;;3.73;;
5507;SDS011;2776;51.046;6.772;2023-03-04T05:48:07;8.47;;;2.77;;
5507;SDS011;2776;51.046;6.772;2023-03-04T05:50:34;9.83;;;3.27;;
5507;SDS011;2776;51.046;6.772;2023-03-04T05:53:02;8.93;;;3.60;;
5507;SDS011;2776;51.046;6.772;2023-03-04T05:55:29;12.50;;;3.37;;
5507;SDS011;2776;51.046;6.772;2023-03-04T05:57:56;12.40;;;4.00;;
5507;SDS011;2776;51.046;6.772;2023-03-04T06:00:23;12.60;;;3.73;;
5507;SDS011;2776;51.046;6.772;2023-03-04T06:02:50;9.23;;;3.13;;
5507;SDS011;2776;51.046;6.772;2023-03-04T06:05:17;8.73;;;2.97;;
5507;SDS011;2776;51.046;6.772;2023-03-04T06:07:45;12.33;;;2.70;;
5507;SDS011;2776;51.046;6.772;2023-03-04T06:10:14;11.43;;;2.97;;
5507;SDS011;2776;51.046;6.772;2023-03-04T06:12:42;11.30;;;2.50;;
5507;SDS011;2776;51.046;6.772;2023-03-04T06:15:09;10.07;;;3.03;;
5507;SDS011;2776;51.046;6.772;2023-03-04T06:17:37;11.70;;;3.00;;
5507;SDS011;2776;51.046;6.772;2023-03-04T06:20:06;13.00;;;3.43;;
5507;SDS011;2776;51.046;6.772;2023-03-04T06:22:34;16.43;;;3.87;;
5507;SDS011;2776;51.046;6.772;2023-03-04T06:25:00;9.93;;;3.17;;
5507;SDS011;2776;51.046;6.772;2023-03-04T06:27:29;8.00;;;2.60;;
5507;SDS011;2776;51.046;6.772;2023-03-04T06:29:55;15.10;;;4.70;;
5507;SDS011;2776;51.046;6.772;2023-03-04T06:32:22;6.93;;;2.73;;
5507;SDS011;2776;51.046;6.772;2023-03-04T06:34:49;17.03;;;5.00;;
5507;SDS011;2776;51.046;6.772;2023-03-04T06:37:16;10.87;;;4.00;;
5507;SDS011;2776;51.046;6.772;2023-03-04T06:39:43;13.47;;;3.83;;
5507;SDS011;2776;51.046;6.772;2023-03-04T06:42:09;13.80;;;4.70;;
5507;SDS011;2776;51.046;6.772;2023-03-04T06:44:38;13.93;;;3.43;;
5507;SDS011;2776;51.046;6.772;2023-03-04T06:47:04;10.03;;;3.07;;
5507;SDS011;2776;51.046;6.772;2023-03-04T06:49:31;9.37;;;3.03;;
5507;SDS011;2776;51.046;6.772;2023-03-04T06:51:58;11.93;;;2.90;;
5507;SDS011;2776;51.046;6.772;2023-03-04T06:54:25;9.70;;;3.10;;
5507;SDS011;2776;51.046;6.772;2023-03-04T06:56:52;11.53;;;3.27;;
5507;SDS011;2776;51.046;6.772;2023-03-04T06:59:18;11.83;;;3.30;;
5507;SDS011;2776;51.046;6.772;2023-03-04T07:01:46;8.03;;;3.07;;
5507;SDS011;2776;51.046;6.772;2023-03-04T07:04:13;8.60;;;2.23;;
5507;SDS011;2776;51.046;6.772;2023-03-04T07:06:40;8.53;;;2.57;;
5507;SDS011;2776;51.046;6.772;2023-03-04T07:09:07;7.23;;;2.57;;
5507;SDS011;2776;51.046;6.772;2023-03-04T07:11:34;11.17;;;2.87;;
5507;SDS011;2776;51.046;6.772;2023-03-04T07:14:00;6.20;;;2.50;;
5507;SDS011;2776;51.046;6.772;2023-03-04T07:16:27;7.73;;;2.10;;
5507;SDS011;2776;51.046;6.772;2023-03-04T07:18:55;6.93;;;2.80;;
5507;SDS011;2776;51.046;6.772;2023-03-04T07:21:22;8.83;;;2.73;;
5507;SDS011;2776;51.046;6.772;2023-03-04T07:23:49;10.20;;;2.87;;
5507;SDS011;2776;51.046;6.772;2023-03-04T07:26:16;8.83;;;2.43;;
5507;SDS011;2776;51.046;6.772;2023-03-04T07:28:43;12.87;;;3.67;;
5507;SDS011;2776;51.046;6.772;2023-03-04T07:31:10;9.33;;;2.87;;
5507;SDS011;2776;51.046;6.772;2023-03-04T07:33:38;10.27;;;2.57;;
5507;SDS011;2776;51.046;6.772;2023-03-04T07:36:07;14.70;;;3.13;;
5507;SDS011;2776;51.046;6.772;2023-03-04T07:38:33;14.50;;;3.70;;
5507;SDS011;2776;51.046;6.772;2023-03-04T07:41:00;9.70;;;2.70;;
5507;SDS011;2776;51.046;6.772;2023-03-04T07:43:27;5.50;;;2.37;;
5507;SDS011;2776;51.046;6.772;2023-03-04T07:45:58;8.70;;;2.33;;
5507;SDS011;2776;51.046;6.772;2023-03-04T07:48:25;9.10;;;3.00;;
5507;SDS011;2776;51.046;6.772;2023-03-04T07:51:01;7.53;;;2.47;;
5507;SDS011;2776;51.046;6.772;2023-03-04T07:53:33;9.07;;;2.73;;
5507;SDS011;2776;51.046;6.772;2023-03-04T07:56:01;8.93;;;1.70;;
5507;SDS011;2776;51.046;6.772;2023-03-04T07:58:28;7.70;;;2.87;;
5507;SDS011;2776;51.046;6.772;2023-03-04T08:00:55;8.27;;;2.27;;
5507;SDS011;2776;51.046;6.772;2023-03-04T08:03:22;10.60;;;2.60;;
5507;SDS011;2776;51.046;6.772;2023-03-04T08:05:49;6.67;;;2.27;;
5507;SDS011;2776;51.046;6.772;2023-03-04T08:08:18;8.50;;;2.60;;
5507;SDS011;2776;51.046;6.772;2023-03-04T08:10:45;8.10;;;2.43;;
5507;SDS011;2776;51.046;6.772;2023-03-04T08:13:11;9.50;;;2.57;;
5507;SDS011;2776;51.046;6.772;2023-03-04T08:15:39;15.50;;;5.10;;
5507;SDS011;2776;51.046;6.772;2023-03-04T08:18:06;10.37;;;2.20;;
5507;SDS011;2776;51.046;6.772;2023-03-04T08:20:33;9.17;;;2.43;;
5507;SDS011;2776;51.046;6.772;2023-03-04T08:23:00;8.80;;;2.90;;
5507;SDS011;2776;51.046;6.772;2023-03-04T08:25:28;11.50;;;2.63;;
5507;SDS011;2776;51.046;6.772;2023-03-04T08:27:55;6.57;;;2.60;;
5507;SDS011;2776;51.046;6.772;2023-03-04T08:30:21;5.50;;;1.80;;
5507;SDS011;2776;51.046;6.772;2023-03-04T08:32:48;8.27;;;2.10;;
5507;SDS011;2776;51.046;6.772;2023-03-04T08:35:15;7.37;;;2.10;;
5507;SDS011;2776;51.046;6.772;2023-03-04T08:37:42;5.97;;;1.90;;
5507;SDS011;2776;51.046;6.772;2023-03-04T08:40:10;7.10;;;1.63;;
5507;SDS011;2776;51.046;6.772;2023-03-04T08:42:39;9.83;;;2.63;;
5507;SDS011;2776;51.046;6.772;2023-03-04T08:45:07;9.20;;;2.70;;
5507;SDS011;2776;51.046;6.772;2023-03-04T08:47:34;7.40;;;3.10;;
5507;SDS011;2776;51.046;6.772;2023-03-04T08:50:01;14.87;;;4.67;;
5507;SDS011;2776;51.046;6.772;2023-03-04T08:52:28;8.40;;;2.60;;
5507;SDS011;2776;51.046;6.772;2023-03-04T08:54:55;8.23;;;2.50;;
5507;SDS011;2776;51.046;6.772;2023-03-04T08:57:22;6.20;;;2.07;;
5507;SDS011;2776;51.046;6.772;2023-03-04T08:59:51;8.00;;;1.90;;
5507;SDS011;2776;51.046;6.772;2023-03-04T09:02:18;4.03;;;1.83;;
5507;SDS011;2776;51.046;6.772;2023-03-04T09:04:44;8.00;;;2.17;;
5507;SDS011;2776;51.046;6.772;2023-03-04T09:07:11;6.70;;;2.00;;
5507;SDS011;2776;51.046;6.772;2023-03-04T09:09:38;7.10;;;1.70;;
5507;SDS011;2776;51.046;6.772;2023-03-04T09:12:05;5.90;;;1.67;;
5507;SDS011;2776;51.046;6.772;2023-03-04T09:14:32;4.93;;;1.70;;
5507;SDS011;2776;51.046;6.772;2023-03-04T09:17:01;4.63;;;1.40;;
5507;SDS011;2776;51.046;6.772;2023-03-04T09:19:28;4.63;;;1.50;;
5507;SDS011;2776;51.046;6.772;2023-03-04T09:21:55;11.03;;;1.63;;
5507;SDS011;2776;51.046;6.772;2023-03-04T09:24:23;6.17;;;1.50;;
5507;SDS011;2776;51.046;6.772;2023-03-04T09:26:50;5.93;;;1.97;;
5507;SDS011;2776;51.046;6.772;2023-03-04T09:29:17;4.23;;;1.30;;
5507;SDS011;2776;51.046;6.772;2023-03-04T09:31:44;5.43;;;1.83;;
5507;SDS011;2776;51.046;6.772;2023-03-04T09:34:12;4.03;;;1.60;;
5507;SDS011;2776;51.046;6.772;2023-03-04T09:36:39;6.17;;;1.53;;
5507;SDS011;2776;51.046;6.772;2023-03-04T09:39:06;4.17;;;1.20;;
5507;SDS011;2776;51.046;6.772;2023-03-04T09:41:35;4.80;;;1.33;;
5507;SDS011;2776;51.046;6.772;2023-03-04T09:44:04;4.70;;;1.30;;
5507;SDS011;2776;51.046;6.772;2023-03-04T09:46:38;5.20;;;1.77;;
5507;SDS011;2776;51.046;6.772;2023-03-04T09:49:08;4.80;;;1.50;;
5507;SDS011;2776;51.046;6.772;2023-03-04T09:51:43;9.30;;;1.63;;
5507;SDS011;2776;51.046;6.772;2023-03-04T09:54:15;3.87;;;1.20;;
5507;SDS011;2776;51.046;6.772;2023-03-04T09:56:49;9.43;;;2.20;;
5507;SDS011;2776;51.046;6.772;2023-03-04T09:59:21;5.60;;;1.40;;
5507;SDS011;2776;51.046;6.772;2023-03-04T10:01:51;8.70;;;1.50;;
5507;SDS011;2776;51.046;6.772;2023-03-04T10:04:24;4.63;;;1.63;;
5507;SDS011;2776;51.046;6.772;2023-03-04T10:06:58;2.73;;;1.77;;
5507;SDS011;2776;51.046;6.772;2023-03-04T10:09:27;4.03;;;1.13;;
5507;SDS011;2776;51.046;6.772;2023-03-04T10:11:59;3.27;;;1.57;;
5507;SDS011;2776;51.046;6.772;2023-03-04T10:14:31;6.30;;;1.43;;
5507;SDS011;2776;51.046;6.772;2023-03-04T10:17:03;6.23;;;1.60;;
5507;SDS011;2776;51.046;6.772;2023-03-04T10:19:37;6.57;;;1.73;;
5507;SDS011;2776;51.046;6.772;2023-03-04T10:22:16;6.43;;;1.90;;
5507;SDS011;2776;51.046;6.772;2023-03-04T10:24:48;5.50;;;1.80;;
5507;SDS011;2776;51.046;6.772;2023-03-04T10:27:17;5.90;;;1.93;;
5507;SDS011;2776;51.046;6.772;2023-03-04T10:29:45;7.37;;;2.10;;
5507;SDS011;2776;51.046;6.772;2023-03-04T10:32:12;6.70;;;2.40;;
5507;SDS011;2776;51.046;6.772;2023-03-04T10:34:41;5.90;;;2.30;;
5507;SDS011;2776;51.046;6.772;2023-03-04T10:37:08;5.07;;;2.10;;
5507;SDS011;2776;51.046;6.772;2023-03-04T10:39:37;8.47;;;2.27;;
5507;SDS011;2776;51.046;6.772;2023-03-04T10:42:06;7.30;;;2.70;;
5507;SDS011;2776;51.046;6.772;2023-03-04T10:44:52;8.87;;;4.40;;
5507;SDS011;2776;51.046;6.772;2023-03-04T10:47:21;5.67;;;2.00;;
5507;SDS011;2776;51.046;6.772;2023-03-04T10:49:49;7.23;;;2.00;;
5507;SDS011;2776;51.046;6.772;2023-03-04T10:52:18;5.07;;;2.13;;
5507;SDS011;2776;51.046;6.772;2023-03-04T10:54:53;8.00;;;2.00;;
5507;SDS011;2776;51.046;6.772;2023-03-04T10:57:22;5.17;;;1.70;;
5507;SDS011;2776;51.046;6.772;2023-03-04T10:59:54;6.20;;;2.03;;
5507;SDS011;2776;51.046;6.772;2023-03-04T11:02:22;3.63;;;1.53;;
5507;SDS011;2776;51.046;6.772;2023-03-04T11:04:51;5.60;;;2.23;;
5507;SDS011;2776;51.046;6.772;2023-03-04T11:07:21;4.27;;;1.77;;
5507;SDS011;2776;51.046;6.772;2023-03-04T11:09:50;3.30;;;1.47;;
5507;SDS011;2776;51.046;6.772;2023-03-04T11:12:20;3.33;;;1.50;;
5507;SDS011;2776;51.046;6.772;2023-03-04T11:14:57;2.97;;;1.30;;
5507;SDS011;2776;51.046;6.772;2023-03-04T11:17:25;4.90;;;1.60;;
5507;SDS011;2776;51.046;6.772;2023-03-04T11:19:55;5.00;;;1.30;;
5507;SDS011;2776;51.046;6.772;2023-03-04T11:22:27;4.60;;;1.87;;
5507;SDS011;2776;51.046;6.772;2023-03-04T11:24:58;3.57;;;1.30;;
5507;SDS011;2776;51.046;6.772;2023-03-04T11:27:29;4.67;;;1.40;;
5507;SDS011;2776;51.046;6.772;2023-03-04T11:30:08;4.67;;;1.50;;
5507;SDS011;2776;51.046;6.772;2023-03-04T11:32:44;3.93;;;1.37;;
5507;SDS011;2776;51.046;6.772;2023-03-04T11:35:15;4.07;;;1.93;;
5507;SDS011;2776;51.046;6.772;2023-03-04T11:37:50;3.23;;;1.60;;
5507;SDS011;2776;51.046;6.772;2023-03-04T11:40:26;5.57;;;2.17;;
5507;SDS011;2776;51.046;6.772;2023-03-04T11:43:00;4.07;;;1.57;;
5507;SDS011;2776;51.046;6.772;2023-03-04T11:45:39;4.87;;;2.27;;
5507;SDS011;2776;51.046;6.772;2023-03-04T11:48:35;3.23;;;2.03;;
5507;SDS011;2776;51.046;6.772;2023-03-04T11:51:15;6.80;;;2.27;;
5507;SDS011;2776;51.046;6.772;2023-03-04T11:53:54;3.73;;;1.90;;
5507;SDS011;2776;51.046;6.772;2023-03-04T11:56:38;7.87;;;3.37;;
5507;SDS011;2776;51.046;6.772;2023-03-04T11:59:18;4.07;;;1.50;;
5507;SDS011;2776;51.046;6.772;2023-03-04T12:01:54;2.90;;;1.40;;
5507;SDS011;2776;51.046;6.772;2023-03-04T12:04:30;7.63;;;2.07;;
5507;SDS011;2776;51.046;6.772;2023-03-04T12:07:20;5.63;;;1.80;;
5507;SDS011;2776;51.046;6.772;2023-03-04T12:10:01;5.47;;;1.33;;
5507;SDS011;2776;51.046;6.772;2023-03-04T12:12:41;6.70;;;2.53;;
5507;SDS011;2776;51.046;6.772;2023-03-04T12:15:20;3.03;;;1.17;;
5507;SDS011;2776;51.046;6.772;2023-03-04T12:17:57;3.07;;;1.20;;
5507;SDS011;2776;51.046;6.772;2023-03-04T12:20:57;3.77;;;1.23;;
5507;SDS011;2776;51.046;6.772;2023-03-04T12:23:36;2.13;;;1.07;;
5507;SDS011;2776;51.046;6.772;2023-03-04T12:26:30;3.03;;;1.20;;
5507;SDS011;2776;51.046;6.772;2023-03-04T12:29:02;2.50;;;1.00;;
5507;SDS011;2776;51.046;6.772;2023-03-04T12:31:37;3.70;;;1.40;;
5507;SDS011;2776;51.046;6.772;2023-03-04T12:34:12;1.30;;;0.90;;
5507;SDS011;2776;51.046;6.772;2023-03-04T12:36:55;2.67;;;1.13;;
5507;SDS011;2776;51.046;6.772;2023-03-04T12:39:30;3.73;;;1.40;;
5507;SDS011;2776;51.046;6.772;2023-03-04T12:42:01;2.00;;;1.20;;
5507;SDS011;2776;51.046;6.772;2023-03-04T12:44:37;2.00;;;1.33;;
5507;SDS011;2776;51.046;6.772;2023-03-04T12:47:15;5.30;;;1.00;;
5507;SDS011;2776;51.046;6.772;2023-03-04T12:49:50;2.77;;;1.07;;
5507;SDS011;2776;51.046;6.772;2023-03-04T12:52:28;3.40;;;1.13;;
5507;SDS011;2776;51.046;6.772;2023-03-04T12:55:07;2.17;;;0.83;;
5507;SDS011;2776;51.046;6.772;2023-03-04T12:57:35;3.33;;;1.30;;
5507;SDS011;2776;51.046;6.772;2023-03-04T13:00:07;7.13;;;1.30;;
5507;SDS011;2776;51.046;6.772;2023-03-04T13:02:46;2.67;;;1.10;;
5507;SDS011;2776;51.046;6.772;2023-03-04T13:05:23;1.07;;;0.90;;
5507;SDS011;2776;51.046;6.772;2023-03-04T13:08:00;1.67;;;1.00;;
5507;SDS011;2776;51.046;6.772;2023-03-04T13:10:32;3.73;;;1.00;;
5507;SDS011;2776;51.046;6.772;2023-03-04T13:12:59;3.00;;;1.10;;
5507;SDS011;2776;51.046;6.772;2023-03-04T13:15:28;3.10;;;1.13;;
5507;SDS011;2776;51.046;6.772;2023-03-04T13:17:58;1.07;;;0.70;;
5507;SDS011;2776;51.046;6.772;2023-03-04T13:20:34;2.77;;;1.03;;
5507;SDS011;2776;51.046;6.772;2023-03-04T13:23:03;8.57;;;4.70;;
5507;SDS011;2776;51.046;6.772;2023-03-04T13:26:05;2.30;;;1.10;;
5507;SDS011;2776;51.046;6.772;2023-03-04T13:28:41;3.30;;;1.53;;
5507;SDS011;2776;51.046;6.772;2023-03-04T13:31:19;1.83;;;1.20;;
5507;SDS011;2776;51.046;6.772;2023-03-04T13:33:58;1.93;;;0.90;;
5507;SDS011;2776;51.046;6.772;2023-03-04T13:39:21;3.90;;;1.20;;
5507;SDS011;2776;51.046;6.772;2023-03-04T13:41:55;2.10;;;1.20;;
5507;SDS011;2776;51.046;6.772;2023-03-04T13:44:33;5.87;;;1.60;;
5507;SDS011;2776;51.046;6.772;2023-03-04T13:47:27;6.70;;;3.67;;
5507;SDS011;2776;51.046;6.772;2023-03-04T13:52:50;3.20;;;1.30;;
5507;SDS011;2776;51.046;6.772;2023-03-04T13:55:33;6.53;;;3.03;;
5507;SDS011;2776;51.046;6.772;2023-03-04T13:58:06;3.03;;;1.30;;
5507;SDS011;2776;51.046;6.772;2023-03-04T14:00:45;2.60;;;1.40;;
5507;SDS011;2776;51.046;6.772;2023-03-04T14:03:17;2.70;;;1.27;;
5507;SDS011;2776;51.046;6.772;2023-03-04T14:05:47;1.97;;;1.60;;
5507;SDS011;2776;51.046;6.772;2023-03-04T14:08:35;4.20;;;1.33;;
5507;SDS011;2776;51.046;6.772;2023-03-04T14:11:01;1.47;;;1.20;;
5507;SDS011;2776;51.046;6.772;2023-03-04T14:13:28;3.60;;;1.60;;
5507;SDS011;2776;51.046;6.772;2023-03-04T14:15:56;1.57;;;1.37;;
5507;SDS011;2776;51.046;6.772;2023-03-04T14:18:24;3.80;;;1.70;;
5507;SDS011;2776;51.046;6.772;2023-03-04T14:20:53;3.57;;;1.70;;
5507;SDS011;2776;51.046;6.772;2023-03-04T14:23:24;1.73;;;1.30;;
5507;SDS011;2776;51.046;6.772;2023-03-04T14:26:02;3.80;;;1.53;;
5507;SDS011;2776;51.046;6.772;2023-03-04T14:28:33;4.80;;;1.60;;
5507;SDS011;2776;51.046;6.772;2023-03-04T14:31:16;4.90;;;1.20;;
5507;SDS011;2776;51.046;6.772;2023-03-04T14:33:45;2.97;;;1.40;;
5507;SDS011;2776;51.046;6.772;2023-03-04T14:36:16;1.57;;;1.40;;
5507;SDS011;2776;51.046;6.772;2023-03-04T14:38:48;2.37;;;1.10;;
5507;SDS011;2776;51.046;6.772;2023-03-04T14:41:18;4.10;;;1.53;;
5507;SDS011;2776;51.046;6.772;2023-03-04T14:43:51;6.23;;;2.33;;
5507;SDS011;2776;51.046;6.772;2023-03-04T14:46:23;3.90;;;1.30;;
5507;SDS011;2776;51.046;6.772;2023-03-04T14:48:55;3.47;;;1.90;;
5507;SDS011;2776;51.046;6.772;2023-03-04T14:51:31;1.97;;;1.43;;
5507;SDS011;2776;51.046;6.772;2023-03-04T14:54:05;2.40;;;1.50;;
5507;SDS011;2776;51.046;6.772;2023-03-04T14:56:33;3.87;;;1.87;;
5507;SDS011;2776;51.046;6.772;2023-03-04T14:59:00;1.50;;;1.20;;
5507;SDS011;2776;51.046;6.772;2023-03-04T15:01:28;2.33;;;1.33;;
5507;SDS011;2776;51.046;6.772;2023-03-04T15:03:58;2.80;;;1.40;;
5507;SDS011;2776;51.046;6.772;2023-03-04T15:06:27;2.97;;;1.40;;
5507;SDS011;2776;51.046;6.772;2023-03-04T15:08:58;1.83;;;1.37;;
5507;SDS011;2776;51.046;6.772;2023-03-04T15:11:27;3.57;;;1.53;;
5507;SDS011;2776;51.046;6.772;2023-03-04T15:13:57;3.00;;;1.53;;
5507;SDS011;2776;51.046;6.772;2023-03-04T15:16:26;6.83;;;3.83;;
5507;SDS011;2776;51.046;6.772;2023-03-04T15:18:58;4.93;;;1.90;;
5507;SDS011;2776;51.046;6.772;2023-03-04T15:21:28;2.23;;;1.40;;
5507;SDS011;2776;51.046;6.772;2023-03-04T15:23:58;3.40;;;1.50;;
5507;SDS011;2776;51.046;6.772;2023-03-04T15:26:27;2.33;;;2.13;;
5507;SDS011;2776;51.046;6.772;2023-03-04T15:28:54;3.47;;;2.80;;